createdAt,value
2024-05-09T00:03:17.993Z,12.6
2024-05-09T00:23:18.564Z,12.4
2024-05-09T00:43:17.721Z,12.3
2024-05-09T01:03:18.868Z,12.2
2024-05-09T01:23:18.688Z,12
2024-05-09T01:43:18.576Z,11.9
2024-05-09T02:03:18.550Z,11.8
2024-05-09T02:23:18.157Z,11.7
2024-05-09T03:03:18.988Z,11.4
2024-05-09T03:23:18.639Z,11.3
2024-05-09T03:43:18.294Z,11.2
2024-05-09T04:03:18.473Z,11.2
2024-05-09T04:23:18.364Z,11.2
2024-05-09T05:03:18.911Z,11.5
2024-05-09T05:23:18.815Z,11.6
2024-05-09T05:43:18.280Z,11.8
2024-05-09T06:23:17.875Z,12.1
2024-05-09T06:43:19.404Z,12.2
2024-05-09T07:03:19.642Z,12.4
2024-05-09T07:43:18.629Z,12.8
2024-05-09T08:03:18.829Z,12.9
2024-05-09T08:23:18.632Z,13.1
2024-05-09T08:43:18.711Z,13.4
2024-05-09T09:03:18.321Z,13.6
2024-05-09T09:23:18.604Z,13.9
2024-05-09T09:43:18.678Z,14.2
2024-05-09T10:03:18.696Z,14.5
2024-05-09T10:23:17.730Z,14.7
2024-05-09T10:43:18.770Z,15
2024-05-09T11:03:18.596Z,15.3
2024-05-09T11:23:18.531Z,15.5
2024-05-09T11:43:18.599Z,15.7
2024-05-09T12:03:18.531Z,15.7
2024-05-09T12:23:18.484Z,15.9
2024-05-09T12:43:18.568Z,16.2
2024-05-09T13:03:18.702Z,16.5
2024-05-09T13:23:18.505Z,16.5
2024-05-09T13:43:18.768Z,16.8
2024-05-09T14:03:20.206Z,17.2
2024-05-09T14:23:18.438Z,17.3
2024-05-09T14:43:18.545Z,17.5
2024-05-09T15:03:18.739Z,17.7
2024-05-09T15:23:24.183Z,17.8
2024-05-09T15:43:18.470Z,17.8
2024-05-09T16:23:18.499Z,17.4
2024-05-09T16:43:18.681Z,17.3
2024-05-09T17:03:18.576Z,17.2
2024-05-09T17:23:18.346Z,17.1
2024-05-09T17:43:18.366Z,17
2024-05-09T18:03:18.401Z,16.8
2024-05-09T18:23:18.783Z,16.7
2024-05-09T19:03:22.860Z,16.3
2024-05-09T19:23:18.321Z,16.1
2024-05-09T20:03:18.446Z,15.6
2024-05-09T20:43:18.450Z,15.1
2024-05-09T21:03:18.356Z,14.8
2024-05-09T21:23:17.482Z,14.6
2024-05-09T21:43:18.416Z,14.5
2024-05-09T22:03:18.407Z,14.3
2024-05-09T22:23:18.319Z,14.1
2024-05-09T22:43:19.190Z,13.9
2024-05-09T23:03:18.413Z,13.8
2024-05-09T23:23:19.526Z,13.6
2024-05-09T23:43:18.366Z,13.4
